createdAt,value
2022-11-25T00:02:22.543Z,22.40
2022-11-25T00:07:25.492Z,23.27
2022-11-25T00:12:28.312Z,22.42
2022-11-25T00:17:32.473Z,21.02
2022-11-25T00:22:35.398Z,22.38
2022-11-25T00:27:38.133Z,23.75
2022-11-25T00:32:42.357Z,22.55
2022-11-25T00:37:45.099Z,21.15
2022-11-25T00:43:05.271Z,24.67
2022-11-25T00:48:09.701Z,23.63
2022-11-25T00:53:12.449Z,32.15
2022-11-25T00:58:15.241Z,25.67
2022-11-25T01:03:19.380Z,27.23
2022-11-25T01:08:22.216Z,30.20
2022-11-25T01:13:24.909Z,33.13
2022-11-25T01:18:30.136Z,26.05
2022-11-25T01:23:32.951Z,47.92
2022-11-25T01:28:36.108Z,23.65
2022-11-25T01:33:40.261Z,21.02
2022-11-25T01:38:44.148Z,37.03
2022-11-25T01:44:19.207Z,25.42
2022-11-25T01:49:28.226Z,33.40
2022-11-25T01:54:35.101Z,24.50
2022-11-25T01:59:43.789Z,44.63
2022-11-25T02:04:48.946Z,24.40
2022-11-25T02:09:52.342Z,24.83
2022-11-25T02:14:56.712Z,27.17
2022-11-25T02:20:07.087Z,25.98
2022-11-25T02:25:16.149Z,32.55
2022-11-25T02:30:19.481Z,37.75
2022-11-25T02:35:31.746Z,26.48
2022-11-25T02:40:42.755Z,31.55
2022-11-25T02:45:52.750Z,34.08
2022-11-25T02:50:56.324Z,29.17
2022-11-25T02:56:00.825Z,31.48
2022-11-25T03:01:05.129Z,29.48
2022-11-25T03:06:08.508Z,26.20
2022-11-25T03:11:13.734Z,28.05
2022-11-25T03:16:16.583Z,33.67
2022-11-25T03:21:20.583Z,29.35
2022-11-25T03:26:25.974Z,27.38
2022-11-25T03:31:28.807Z,30.30
2022-11-25T03:36:31.866Z,24.80
2022-11-25T03:41:36.051Z,26.55
2022-11-25T03:46:38.938Z,23.90
2022-11-25T03:51:43.914Z,27.60
2022-11-25T03:56:50.071Z,30.05
2022-11-25T04:01:53.054Z,27.67
2022-11-25T04:06:56.050Z,29.20
2022-11-25T04:12:17.854Z,27.42
2022-11-25T04:17:28.905Z,27.45
2022-11-25T04:22:31.952Z,28.27
2022-11-25T04:27:37.347Z,29.33
2022-11-25T04:32:40.604Z,24.25
2022-11-25T04:37:45.056Z,25.23
2022-11-25T04:42:49.986Z,25.45
2022-11-25T04:47:56.047Z,30.20
2022-11-25T04:52:59.350Z,30.45
2022-11-25T04:58:04.049Z,26.52
2022-11-25T05:03:09.176Z,25.77
2022-11-25T05:08:14.289Z,27.30
2022-11-25T05:13:18.663Z,28.45
2022-11-25T05:18:21.468Z,22.60
2022-11-25T05:23:24.689Z,24.90
2022-11-25T05:28:29.760Z,23.33
2022-11-25T05:33:32.832Z,23.52
2022-11-25T05:38:35.822Z,26.35
2022-11-25T05:43:40.559Z,22.17
2022-11-25T05:48:43.920Z,20.90
2022-11-25T05:53:47.257Z,22.50
2022-11-25T05:58:51.743Z,20.58
2022-11-25T06:03:54.689Z,22.80
2022-11-25T06:08:57.579Z,24.33
2022-11-25T06:14:02.296Z,26.08
2022-11-25T06:19:06.749Z,22.27
2022-11-25T06:24:11.972Z,21.00
2022-11-25T06:29:17.974Z,24.77
2022-11-25T06:34:25.096Z,26.48
2022-11-25T06:39:28.108Z,22.25
2022-11-25T06:44:32.315Z,24.60
2022-11-25T06:49:35.112Z,28.17
2022-11-25T06:54:41.060Z,24.10
2022-11-25T06:59:45.295Z,30.90
2022-11-25T07:04:48.172Z,28.05
2022-11-25T07:09:50.898Z,22.98
2022-11-25T07:14:55.176Z,23.80
2022-11-25T07:19:57.880Z,21.33
2022-11-25T07:25:00.595Z,20.33
2022-11-25T07:35:28.088Z,21.65
2022-11-25T07:40:30.852Z,22.98
2022-11-25T07:45:35.413Z,20.80
2022-11-25T07:50:43.463Z,18.55
2022-11-25T07:55:46.269Z,20.60
2022-11-25T08:00:50.440Z,18.35
2022-11-25T08:05:53.334Z,20.55
2022-11-25T08:10:56.400Z,22.00
2022-11-25T08:16:01.568Z,21.63
2022-11-25T08:21:06.638Z,20.10
2022-11-25T08:26:11.449Z,16.45
2022-11-25T08:31:18.098Z,16.75
2022-11-25T08:36:21.975Z,15.18
2022-11-25T08:41:27.078Z,19.17
2022-11-25T08:46:36.412Z,17.85
2022-11-25T08:51:40.316Z,17.48
2022-11-25T08:56:43.887Z,18.92
2022-11-25T09:01:48.072Z,16.65
2022-11-25T09:06:51.028Z,20.08
2022-11-25T09:11:53.839Z,16.15
2022-11-25T09:16:58.024Z,15.43
2022-11-25T09:22:00.898Z,19.00
2022-11-25T09:27:03.716Z,19.70
2022-11-25T09:32:07.987Z,15.18
2022-11-25T09:37:13.023Z,15.48
2022-11-25T09:42:51.077Z,14.18
2022-11-25T09:48:03.870Z,17.05
2022-11-25T09:53:17.227Z,17.00
2022-11-25T09:58:30.387Z,16.60
2022-11-25T10:03:41.303Z,18.02
2022-11-25T10:08:46.633Z,15.73
2022-11-25T10:13:54.781Z,17.55
2022-11-25T10:19:01.878Z,16.80
2022-11-25T10:24:05.119Z,15.02
2022-11-25T10:29:22.930Z,19.00
2022-11-25T10:34:35.698Z,17.83
2022-11-25T10:39:38.603Z,20.15
2022-11-25T10:44:43.013Z,16.02
2022-11-25T10:50:00.805Z,44.47
2022-11-25T10:55:11.490Z,21.33
2022-11-25T11:00:28.715Z,18.63
2022-11-25T11:05:33.193Z,14.05
2022-11-25T11:10:36.434Z,16.77
2022-11-25T11:15:47.938Z,17.13
2022-11-25T11:20:54.159Z,14.80
2022-11-25T11:26:00.674Z,15.93
2022-11-25T11:31:08.142Z,73.40
2022-11-25T11:36:25.206Z,53.88
2022-11-25T11:41:38.445Z,16.50
2022-11-25T11:47:01.801Z,18.77
2022-11-25T11:52:16.591Z,14.48
2022-11-25T11:57:33.788Z,15.02
2022-11-25T12:02:46.787Z,21.52
2022-11-25T12:08:03.488Z,13.40
2022-11-25T12:13:13.949Z,17.45
2022-11-25T12:18:25.338Z,16.25
2022-11-25T12:23:41.121Z,11.57
2022-11-25T12:28:49.985Z,13.43
2022-11-25T12:34:03.084Z,14.70
2022-11-25T12:39:18.003Z,16.73
2022-11-25T12:44:26.424Z,14.02
2022-11-25T12:49:30.802Z,14.55
2022-11-25T12:54:58.588Z,17.15
2022-11-25T13:06:05.783Z,18.23
2022-11-25T13:11:26.446Z,13.52
2022-11-25T13:16:30.626Z,15.65
2022-11-25T13:21:33.717Z,18.77
2022-11-25T13:26:48.142Z,17.63
2022-11-25T13:31:59.895Z,14.25
2022-11-25T13:37:23.787Z,20.63
2022-11-25T13:42:28.856Z,16.55
2022-11-25T13:47:37.634Z,18.60
2022-11-25T13:52:48.076Z,19.55
2022-11-25T13:58:17.856Z,18.80
2022-11-25T14:03:46.692Z,17.02
2022-11-25T14:08:57.225Z,15.20
2022-11-25T14:14:20.680Z,20.80
2022-11-25T14:19:52.769Z,18.85
2022-11-25T14:25:17.924Z,16.80
2022-11-25T14:30:24.145Z,15.98
2022-11-25T14:35:31.495Z,47.33
2022-11-25T14:40:39.637Z,22.75
2022-11-25T14:45:43.967Z,19.30
2022-11-25T14:50:56.665Z,19.27
2022-11-25T14:56:02.390Z,19.00
2022-11-25T15:01:08.818Z,21.60
2022-11-25T15:06:14.766Z,21.10
2022-11-25T15:11:19.791Z,20.77
2022-11-25T15:16:27.108Z,26.88
2022-11-25T15:21:31.710Z,22.35
2022-11-25T15:26:36.483Z,20.05
2022-11-25T15:31:41.645Z,22.63
2022-11-25T15:36:45.165Z,25.60
2022-11-25T15:41:50.798Z,22.27
2022-11-25T15:47:00.365Z,22.85
2022-11-25T15:52:08.426Z,25.65
2022-11-25T15:57:18.783Z,22.75
2022-11-25T16:02:38.101Z,30.08
2022-11-25T16:07:41.682Z,23.60
2022-11-25T16:12:44.467Z,24.42
2022-11-25T16:17:48.681Z,24.88
2022-11-25T16:22:51.443Z,28.50
2022-11-25T16:27:54.265Z,38.47
2022-11-25T16:32:58.744Z,24.08
2022-11-25T16:38:01.465Z,26.35
2022-11-25T16:43:04.658Z,25.23
2022-11-25T16:48:16.984Z,27.20
2022-11-25T16:53:19.876Z,28.35
2022-11-25T16:58:25.072Z,28.17
2022-11-25T17:03:29.550Z,33.28
2022-11-25T17:08:32.425Z,30.67
2022-11-25T17:13:35.691Z,27.33
2022-11-25T17:18:39.910Z,29.13
2022-11-25T17:23:43.343Z,33.70
2022-11-25T17:28:54.085Z,32.35
2022-11-25T17:33:58.367Z,29.50
2022-11-25T17:39:01.115Z,34.30
2022-11-25T17:44:03.904Z,46.03
2022-11-25T17:49:14.876Z,32.58
2022-11-25T17:54:17.710Z,33.40
2022-11-25T17:59:26.701Z,33.67
2022-11-25T18:04:34.182Z,34.17
2022-11-25T18:09:37.027Z,33.72
2022-11-25T18:14:40.903Z,36.30
2022-11-25T18:19:49.785Z,44.92
2022-11-25T18:24:57.673Z,36.88
2022-11-25T18:30:02.513Z,44.53
2022-11-25T18:35:16.385Z,44.58
2022-11-25T18:40:19.648Z,44.05
2022-11-25T18:45:24.648Z,37.70
2022-11-25T18:50:29.002Z,36.45
2022-11-25T18:55:32.148Z,38.15
2022-11-25T19:00:35.038Z,51.67
2022-11-25T19:05:45.873Z,55.90
2022-11-25T19:10:50.407Z,52.72
2022-11-25T19:15:58.796Z,48.47
2022-11-25T19:21:02.932Z,42.83
2022-11-25T19:26:12.395Z,38.35
2022-11-25T19:31:15.295Z,39.50
2022-11-25T19:36:24.663Z,47.30
2022-11-25T19:41:30.725Z,44.25
2022-11-25T19:46:52.702Z,46.85
2022-11-25T19:52:03.779Z,41.97
2022-11-25T19:57:19.483Z,38.25
2022-11-25T20:02:50.511Z,39.53
2022-11-25T20:07:57.388Z,42.25
2022-11-25T20:13:00.908Z,42.25
2022-11-25T20:18:05.261Z,41.08
2022-11-25T20:23:25.701Z,32.25
2022-11-25T20:28:41.428Z,42.15
2022-11-25T20:33:54.014Z,37.45
2022-11-25T20:39:26.607Z,40.47
2022-11-25T20:44:29.576Z,39.45
2022-11-25T20:49:33.734Z,35.28
2022-11-25T20:54:54.591Z,37.20
2022-11-25T20:59:57.952Z,39.30
2022-11-25T21:05:00.956Z,32.75
2022-11-25T21:10:22.679Z,41.78
2022-11-25T21:15:27.408Z,38.60
2022-11-25T21:20:30.307Z,37.75
2022-11-25T21:25:35.817Z,32.92
2022-11-25T21:30:51.305Z,29.27
2022-11-25T21:42:21.782Z,27.10
2022-11-25T21:47:43.636Z,25.80
2022-11-25T22:04:47.211Z,26.35
2022-11-25T22:09:50.415Z,24.92
2022-11-25T22:14:55.207Z,24.80
2022-11-25T22:19:58.362Z,26.85
2022-11-25T22:25:01.170Z,28.02
2022-11-25T22:30:06.364Z,22.48
2022-11-25T22:35:15.525Z,31.23
2022-11-25T22:40:18.320Z,29.75
2022-11-25T22:45:28.731Z,26.38
2022-11-25T22:50:33.879Z,28.02
2022-11-25T22:55:36.727Z,29.17
2022-11-25T23:00:44.844Z,23.75
2022-11-25T23:05:48.575Z,29.73
2022-11-25T23:10:52.597Z,30.67
2022-11-25T23:15:58.303Z,29.98
2022-11-25T23:21:01.102Z,27.35
2022-11-25T23:26:03.866Z,28.00
2022-11-25T23:31:12.788Z,34.75
2022-11-25T23:36:18.967Z,30.08
2022-11-25T23:41:23.636Z,32.20
2022-11-25T23:53:58.354Z,30.23
2022-11-25T23:59:30.948Z,23.08
